createdAt,value
2023-05-09T00:01:57.715Z,100658.13
2023-05-09T00:04:27.786Z,100690.25
2023-05-09T00:06:54.703Z,100652.66
2023-05-09T00:09:34.410Z,100655.34
2023-05-09T00:12:01.278Z,100640.59
2023-05-09T00:14:28.307Z,100635.91
2023-05-09T00:16:59.413Z,100620.19
2023-05-09T00:19:26.358Z,100632.84
2023-05-09T00:21:53.570Z,100679.63
2023-05-09T00:24:22.275Z,100664.66
2023-05-09T00:26:49.510Z,100638.09
2023-05-09T00:29:16.994Z,100607.69
2023-05-09T00:31:44.757Z,100642.44
2023-05-09T00:34:13.960Z,100610.94
2023-05-09T00:36:41.701Z,100664.72
2023-05-09T00:39:13.678Z,100604.44
2023-05-09T00:41:46.082Z,100623.75
2023-05-09T00:44:16.955Z,100643.81
2023-05-09T00:46:46.498Z,100593.47
2023-05-09T00:49:15.843Z,100603.44
2023-05-09T00:51:45.414Z,100601.72
2023-05-09T00:54:12.409Z,100557.16
2023-05-09T00:56:39.765Z,100542.63
2023-05-09T00:59:10.876Z,100649.16
2023-05-09T01:01:41.877Z,100589.94
2023-05-09T01:04:12.358Z,100622.94
2023-05-09T01:06:50.936Z,100628.41
2023-05-09T01:09:49.181Z,100623.91
2023-05-09T01:12:47.085Z,100624.97
2023-05-09T01:15:53.088Z,100628.41
2023-05-09T01:18:44.668Z,100616.41
2023-05-09T01:21:21.563Z,100624.88
2023-05-09T01:24:24.932Z,100620.50
2023-05-09T01:27:15.984Z,100593.09
2023-05-09T01:29:45.065Z,100617.94
2023-05-09T01:32:22.495Z,100519.28
2023-05-09T01:34:59.348Z,100580.03
2023-05-09T01:37:31.866Z,100617.94
2023-05-09T01:40:06.536Z,100564.63
2023-05-09T01:42:42.707Z,100531.84
2023-05-09T01:45:16.299Z,100563.88
2023-05-09T01:47:49.935Z,100520.31
2023-05-09T01:50:22.066Z,100569.16
2023-05-09T01:52:53.138Z,100499.75
2023-05-09T01:55:25.848Z,100535.72
2023-05-09T01:57:57.999Z,100590.31
2023-05-09T02:00:26.743Z,100541.38
2023-05-09T02:03:02.395Z,100589.38
2023-05-09T02:05:31.319Z,100587.88
2023-05-09T02:08:03.290Z,100566.13
2023-05-09T02:10:33.863Z,100523.88
2023-05-09T02:13:00.530Z,100576.03
2023-05-09T02:15:32.706Z,100586.16
2023-05-09T02:18:02.137Z,100533.06
2023-05-09T02:20:36.248Z,100580.44
2023-05-09T02:23:03.936Z,100581.41
2023-05-09T02:25:34.830Z,100526.75
2023-05-09T02:28:02.915Z,100503.16
2023-05-09T02:30:37.257Z,100552.38
2023-05-09T02:33:08.040Z,100546.50
2023-05-09T02:35:42.394Z,100488.31
2023-05-09T02:38:11.131Z,100498.31
2023-05-09T02:40:49.832Z,100543.03
2023-05-09T02:43:18.199Z,100536.28
2023-05-09T02:45:45.117Z,100498.59
2023-05-09T02:48:12.923Z,100530.19
2023-05-09T02:50:42.128Z,100554.66
2023-05-09T02:53:12.589Z,100561.97
2023-05-09T02:55:41.285Z,100557.69
2023-05-09T02:58:14.773Z,100532.00
2023-05-09T03:00:42.656Z,100509.06
2023-05-09T03:03:09.579Z,100525.88
2023-05-09T03:05:36.480Z,100555.97
2023-05-09T03:08:03.463Z,100558.88
2023-05-09T03:10:30.792Z,100497.94
2023-05-09T03:13:00.542Z,100566.00
2023-05-09T03:15:29.340Z,100550.84
2023-05-09T03:17:57.696Z,100561.22
2023-05-09T03:20:24.424Z,100530.28
2023-05-09T03:22:51.408Z,100555.22
2023-05-09T03:25:18.128Z,100521.75
2023-05-09T03:27:46.647Z,100486.41
2023-05-09T03:30:15.936Z,100540.00
2023-05-09T03:32:43.472Z,100548.19
2023-05-09T03:35:10.374Z,100541.22
2023-05-09T03:37:36.947Z,100488.06
2023-05-09T03:40:04.617Z,100507.66
2023-05-09T03:42:31.198Z,100534.09
2023-05-09T03:44:58.098Z,100522.47
2023-05-09T03:47:25.947Z,100536.97
2023-05-09T03:49:53.648Z,100534.41
2023-05-09T03:52:20.525Z,100529.44
2023-05-09T03:54:47.265Z,100536.97
2023-05-09T03:57:14.597Z,100522.59
2023-05-09T03:59:43.722Z,100510.22
2023-05-09T04:02:11.522Z,100519.59
2023-05-09T04:04:38.553Z,100496.38
2023-05-09T04:07:05.807Z,100516.84
2023-05-09T04:09:32.553Z,100518.56
2023-05-09T04:11:59.059Z,100515.03
2023-05-09T04:14:27.441Z,100524.38
2023-05-09T04:16:54.249Z,100526.84
2023-05-09T04:19:21.181Z,100527.03
2023-05-09T04:21:47.737Z,100486.75
2023-05-09T04:24:14.286Z,100524.34
2023-05-09T04:26:43.643Z,100520.44
2023-05-09T04:29:15.472Z,100527.28
2023-05-09T04:31:44.464Z,100517.75
2023-05-09T04:34:12.240Z,100516.19
2023-05-09T04:36:38.784Z,100517.41
2023-05-09T04:39:07.867Z,100527.94
2023-05-09T04:41:34.426Z,100513.22
2023-05-09T04:44:03.294Z,100528.13
2023-05-09T04:46:32.865Z,100504.81
2023-05-09T04:48:59.566Z,100511.00
2023-05-09T04:51:30.144Z,100512.59
2023-05-09T04:54:00.882Z,100511.22
2023-05-09T04:56:30.377Z,100508.75
2023-05-09T04:58:57.244Z,100503.13
2023-05-09T05:01:26.032Z,100479.69
2023-05-09T05:03:56.459Z,100489.13
2023-05-09T05:06:29.730Z,100484.13
2023-05-09T05:08:58.861Z,100487.88
2023-05-09T05:11:25.533Z,100484.03
2023-05-09T05:14:02.971Z,100486.16
2023-05-09T05:16:39.152Z,100480.91
2023-05-09T05:19:07.013Z,100478.03
2023-05-09T05:21:36.462Z,100482.53
2023-05-09T05:24:07.254Z,100450.66
2023-05-09T05:26:33.773Z,100474.84
2023-05-09T05:29:00.883Z,100481.66
2023-05-09T05:31:27.798Z,100473.75
2023-05-09T05:33:54.536Z,100481.16
2023-05-09T05:36:21.727Z,100481.56
2023-05-09T05:39:05.846Z,100466.06
2023-05-09T05:41:33.976Z,100481.25
2023-05-09T05:44:03.434Z,100470.56
2023-05-09T05:46:30.460Z,100476.75
2023-05-09T05:48:57.385Z,100468.03
2023-05-09T05:51:26.846Z,100472.94
2023-05-09T05:53:53.699Z,100469.31
2023-05-09T05:56:28.641Z,100479.22
2023-05-09T06:01:42.173Z,100453.94
2023-05-09T06:04:09.990Z,100462.59
2023-05-09T06:06:44.871Z,100464.28
2023-05-09T06:09:12.154Z,100468.25
2023-05-09T06:11:39.374Z,100468.34
2023-05-09T06:14:07.160Z,100468.50
2023-05-09T06:16:35.559Z,100455.72
2023-05-09T06:19:03.442Z,100463.53
2023-05-09T06:21:30.404Z,100457.41
2023-05-09T06:24:08.332Z,100454.75
2023-05-09T06:26:39.349Z,100451.13
2023-05-09T06:29:09.101Z,100433.16
2023-05-09T06:31:37.175Z,100448.63
2023-05-09T06:34:14.602Z,100441.78
2023-05-09T06:36:41.473Z,100431.91
2023-05-09T06:39:24.725Z,100409.97
2023-05-09T06:41:53.022Z,100438.13
2023-05-09T06:47:03.634Z,100425.34
2023-05-09T06:49:44.830Z,100431.91
2023-05-09T06:52:13.067Z,100422.91
2023-05-09T06:54:39.876Z,100414.97
2023-05-09T06:57:08.436Z,100410.22
2023-05-09T06:59:35.681Z,100412.56
2023-05-09T07:02:02.865Z,100425.09
2023-05-09T07:04:32.936Z,100418.06
2023-05-09T07:07:01.123Z,100417.03
2023-05-09T07:09:31.979Z,100386.59
2023-05-09T07:12:01.877Z,100405.63
2023-05-09T07:14:29.140Z,100402.47
2023-05-09T07:17:13.616Z,100380.34
2023-05-09T07:19:50.113Z,100398.03
2023-05-09T07:22:17.285Z,100374.66
2023-05-09T07:24:47.732Z,100380.19
2023-05-09T07:27:14.767Z,100382.47
2023-05-09T07:29:47.730Z,100366.28
2023-05-09T07:32:14.699Z,100363.38
2023-05-09T07:34:51.444Z,100368.47
2023-05-09T07:37:18.700Z,100382.41
2023-05-09T07:39:47.475Z,100376.91
2023-05-09T07:42:20.006Z,100374.72
2023-05-09T07:44:49.616Z,100374.97
2023-05-09T07:47:18.210Z,100344.03
2023-05-09T07:49:47.212Z,100362.19
2023-05-09T07:52:17.759Z,100358.50
2023-05-09T07:54:54.488Z,100328.72
2023-05-09T07:57:23.153Z,100355.81
2023-05-09T07:59:52.413Z,100354.19
2023-05-09T08:02:30.327Z,100349.19
2023-05-09T08:05:13.143Z,100349.47
2023-05-09T08:07:45.282Z,100347.41
2023-05-09T08:10:15.998Z,100356.75
2023-05-09T08:12:42.796Z,100340.19
2023-05-09T08:15:10.144Z,100336.78
2023-05-09T08:17:41.472Z,100338.22
2023-05-09T08:20:09.330Z,100325.44
2023-05-09T08:22:37.379Z,100321.44
2023-05-09T08:25:04.303Z,100326.41
2023-05-09T08:27:35.838Z,100322.03
2023-05-09T08:30:12.121Z,100326.78
2023-05-09T08:32:41.384Z,100317.31
2023-05-09T08:35:09.884Z,100308.53
2023-05-09T08:37:37.062Z,100297.34
2023-05-09T08:40:10.920Z,100302.06
2023-05-09T08:42:41.834Z,100308.47
2023-05-09T08:45:19.389Z,100303.22
2023-05-09T08:47:53.803Z,100304.09
2023-05-09T08:50:26.153Z,100298.75
2023-05-09T08:52:53.687Z,100296.53
2023-05-09T08:55:31.763Z,100289.09
2023-05-09T08:57:59.711Z,100299.22
2023-05-09T09:00:29.525Z,100298.81
2023-05-09T09:03:02.127Z,100300.28
2023-05-09T09:08:30.140Z,100295.50
2023-05-09T09:10:59.696Z,100287.56
2023-05-09T09:13:28.205Z,100286.13
2023-05-09T09:16:00.952Z,100283.94
2023-05-09T09:18:43.228Z,100281.53
2023-05-09T09:21:19.933Z,100269.28
2023-05-09T09:23:55.599Z,100277.44
2023-05-09T09:26:22.394Z,100273.22
2023-05-09T09:28:49.613Z,100261.47
2023-05-09T09:31:25.644Z,100270.63
2023-05-09T09:33:55.717Z,100263.69
2023-05-09T09:36:35.724Z,100262.16
2023-05-09T09:39:05.363Z,100255.81
2023-05-09T09:41:36.306Z,100206.97
2023-05-09T09:44:15.962Z,100257.63
2023-05-09T09:46:51.181Z,100244.75
2023-05-09T09:49:32.367Z,100241.03
2023-05-09T09:52:05.832Z,100234.78
2023-05-09T09:54:38.326Z,100218.69
2023-05-09T09:57:05.273Z,100235.81
2023-05-09T09:59:34.594Z,100235.75
2023-05-09T10:02:08.367Z,100231.47
2023-05-09T10:04:37.374Z,100222.34
2023-05-09T10:07:08.997Z,100220.84
2023-05-09T10:09:40.165Z,100196.16
2023-05-09T10:12:11.243Z,100219.47
2023-05-09T10:14:45.384Z,100185.66
2023-05-09T10:17:18.085Z,100203.94
2023-05-09T10:19:51.240Z,100207.09
2023-05-09T10:22:26.704Z,100188.41
2023-05-09T10:25:14.987Z,100171.63
2023-05-09T10:27:47.637Z,100197.97
2023-05-09T10:30:22.772Z,100187.34
2023-05-09T10:32:54.507Z,100146.84
2023-05-09T10:35:31.034Z,100181.44
2023-05-09T10:38:00.396Z,100179.75
2023-05-09T10:40:27.884Z,100180.16
2023-05-09T10:42:58.830Z,100163.50
2023-05-09T10:45:34.750Z,100157.69
2023-05-09T10:48:04.272Z,100157.69
2023-05-09T10:50:37.728Z,100156.56
2023-05-09T10:53:21.809Z,100155.84
2023-05-09T10:56:04.197Z,100141.75
2023-05-09T10:58:46.917Z,100149.06
2023-05-09T11:01:15.573Z,100088.72
2023-05-09T11:04:00.429Z,100132.75
2023-05-09T11:06:49.587Z,100132.94
2023-05-09T11:12:26.298Z,100111.94
2023-05-09T11:14:55.760Z,100106.47
2023-05-09T11:17:31.527Z,100116.16
2023-05-09T11:20:05.324Z,100095.78
2023-05-09T11:25:42.600Z,100011.69
2023-05-09T11:31:22.979Z,100067.31
2023-05-09T11:37:17.534Z,100054.41
2023-05-09T11:39:58.154Z,100081.38
2023-05-09T11:42:27.800Z,100080.19
2023-05-09T11:44:57.727Z,100074.13
2023-05-09T11:47:25.908Z,100069.09
2023-05-09T11:50:06.083Z,100074.28
2023-05-09T11:52:33.870Z,100068.25
2023-05-09T11:57:45.518Z,100071.56
2023-05-09T12:00:19.427Z,100062.81
2023-05-09T12:05:33.139Z,100039.19
2023-05-09T12:08:07.807Z,100016.00
2023-05-09T12:10:48.310Z,100040.50
2023-05-09T12:13:35.540Z,100039.63
2023-05-09T12:16:10.548Z,100035.34
2023-05-09T12:18:39.066Z,100014.53
2023-05-09T12:21:08.902Z,100034.88
2023-05-09T12:23:41.416Z,100033.41
2023-05-09T12:26:09.438Z,100033.84
2023-05-09T12:28:40.997Z,100031.41
2023-05-09T12:31:14.019Z,100026.09
2023-05-09T12:51:13.986Z,99987.84
2023-05-09T12:57:25.289Z,99954.94
2023-05-09T13:09:32.546Z,99910.28
2023-05-09T13:15:01.281Z,99931.81
2023-05-09T13:17:50.752Z,99910.81
2023-05-09T13:37:29.846Z,99896.00
2023-05-09T13:45:24.828Z,99842.69
2023-05-09T13:47:51.696Z,99882.56
2023-05-09T13:53:10.219Z,99842.72
2023-05-09T13:55:42.395Z,99863.47
2023-05-09T13:58:09.997Z,99831.94
2023-05-09T14:00:45.005Z,99838.00
2023-05-09T14:03:14.272Z,99812.34
2023-05-09T14:05:42.532Z,99866.56
2023-05-09T14:08:15.521Z,99776.56
2023-05-09T14:13:28.906Z,99756.78
2023-05-09T14:16:06.163Z,99818.50
2023-05-09T14:18:36.415Z,99832.72
2023-05-09T14:21:03.171Z,99832.38
2023-05-09T14:23:31.742Z,99791.00
2023-05-09T14:28:46.549Z,99817.72
2023-05-09T14:31:24.625Z,99818.97
2023-05-09T14:33:53.578Z,99789.25
2023-05-09T14:36:22.122Z,99801.53
2023-05-09T14:42:06.587Z,99807.56
2023-05-09T14:44:37.902Z,99772.53
2023-05-09T14:47:05.165Z,99786.09
2023-05-09T14:49:40.340Z,99778.47
2023-05-09T14:52:07.064Z,99788.22
2023-05-09T14:54:38.395Z,99767.66
2023-05-09T14:57:10.919Z,99784.47
2023-05-09T14:59:43.731Z,99760.81
2023-05-09T15:02:20.979Z,99786.78
2023-05-09T15:04:49.387Z,99770.41
2023-05-09T15:07:15.861Z,99762.50
2023-05-09T15:09:43.469Z,99719.97
2023-05-09T15:12:11.412Z,99765.22
2023-05-09T15:17:32.347Z,99761.31
2023-05-09T15:20:00.824Z,99725.91
2023-05-09T15:22:28.438Z,99736.22
2023-05-09T15:27:39.124Z,99755.00
2023-05-09T15:30:07.885Z,99754.63
2023-05-09T15:32:39.997Z,99748.91
2023-05-09T15:35:09.204Z,99758.94
2023-05-09T15:37:36.424Z,99754.78
2023-05-09T15:46:50.800Z,99755.91
2023-05-09T15:53:04.697Z,99741.97
2023-05-09T15:55:43.884Z,99710.31
2023-05-09T15:58:12.945Z,99725.13
2023-05-09T16:00:41.738Z,99715.72
2023-05-09T16:03:15.034Z,99712.81
2023-05-09T16:11:10.139Z,99698.06
2023-05-09T16:13:43.899Z,99690.28
2023-05-09T16:19:00.480Z,99685.41
2023-05-09T16:21:36.902Z,99684.41
2023-05-09T16:24:05.087Z,99681.75
2023-05-09T16:29:24.638Z,99679.06
2023-05-09T16:34:43.779Z,99671.56
2023-05-09T16:46:18.659Z,99652.56
2023-05-09T16:48:47.681Z,99651.13
2023-05-09T16:51:23.181Z,99627.25
2023-05-09T16:56:41.136Z,99637.97
2023-05-09T17:07:25.274Z,99660.16
2023-05-09T17:19:37.539Z,99668.59
2023-05-09T17:31:22.298Z,99656.75
2023-05-09T17:39:18.358Z,99629.13
2023-05-09T17:41:45.884Z,99616.53
2023-05-09T17:44:31.088Z,99584.41
2023-05-09T17:46:58.303Z,99617.50
2023-05-09T17:49:28.206Z,99646.59
2023-05-09T17:52:03.564Z,99631.78
2023-05-09T17:57:24.422Z,99634.22
2023-05-09T17:59:55.856Z,99615.03
2023-05-09T18:02:24.298Z,99610.28
2023-05-09T18:08:37.443Z,99605.69
2023-05-09T18:14:16.695Z,99604.91
2023-05-09T18:19:40.190Z,99651.97
2023-05-09T18:22:19.342Z,99680.50
2023-05-09T18:30:44.295Z,99629.13
2023-05-09T18:33:31.797Z,99662.16
2023-05-09T18:38:44.620Z,99636.13
2023-05-09T18:41:27.839Z,99666.34
2023-05-09T18:46:57.311Z,99612.25
2023-05-09T19:10:50.003Z,99659.06
2023-05-09T19:13:24.071Z,99650.94
2023-05-09T19:15:53.085Z,99649.59
2023-05-09T19:18:23.401Z,99663.88
2023-05-09T19:20:50.100Z,99658.16
2023-05-09T19:23:19.423Z,99676.81
2023-05-09T19:25:46.707Z,99656.44
2023-05-09T19:28:15.059Z,99666.78
2023-05-09T19:30:42.938Z,99663.25
2023-05-09T19:33:09.991Z,99672.34
2023-05-09T19:35:38.313Z,99656.13
2023-05-09T19:38:11.644Z,99674.94
2023-05-09T19:43:30.462Z,99686.47
2023-05-09T19:45:59.271Z,99683.53
2023-05-09T19:48:29.931Z,99671.72
2023-05-09T19:50:59.321Z,99689.53
2023-05-09T19:53:26.546Z,99677.88
2023-05-09T19:56:06.960Z,99664.88
2023-05-09T19:58:41.779Z,99690.78
2023-05-09T20:01:11.484Z,99689.91
2023-05-09T20:03:40.960Z,99681.19
2023-05-09T20:06:08.091Z,99668.19
2023-05-09T20:08:37.955Z,99690.97
2023-05-09T20:11:05.090Z,99677.66
2023-05-09T20:16:16.145Z,99676.94
2023-05-09T20:27:08.223Z,99657.53
2023-05-09T20:29:37.596Z,99665.06
2023-05-09T20:37:55.011Z,99639.13
2023-05-09T20:40:21.973Z,99639.84
2023-05-09T20:42:48.813Z,99646.78
2023-05-09T20:45:16.077Z,99630.75
2023-05-09T20:47:42.655Z,99637.78
2023-05-09T20:50:13.148Z,99621.66
2023-05-09T20:52:41.163Z,99640.84
2023-05-09T20:55:17.088Z,99641.06
2023-05-09T20:57:44.040Z,99652.38
2023-05-09T21:00:14.400Z,99640.31
2023-05-09T21:02:48.439Z,99632.91
2023-05-09T21:05:18.030Z,99652.19
2023-05-09T21:07:44.880Z,99632.91
2023-05-09T21:10:14.508Z,99646.75
2023-05-09T21:12:41.535Z,99637.38
2023-05-09T21:15:10.075Z,99645.50
2023-05-09T21:17:39.088Z,99640.91
2023-05-09T21:20:07.062Z,99626.97
2023-05-09T21:22:33.826Z,99634.25
2023-05-09T21:25:01.221Z,99639.47
2023-05-09T21:27:30.674Z,99637.75
2023-05-09T21:30:01.021Z,99639.56
2023-05-09T21:32:29.598Z,99631.47
2023-05-09T21:35:00.485Z,99631.34
2023-05-09T21:37:32.331Z,99635.69
2023-05-09T21:40:01.834Z,99605.84
2023-05-09T21:42:29.310Z,99578.53
2023-05-09T21:44:55.821Z,99621.25
2023-05-09T21:47:22.799Z,99632.31
2023-05-09T21:49:49.359Z,99601.09
2023-05-09T21:52:16.459Z,99616.88
2023-05-09T21:54:45.292Z,99624.44
2023-05-09T21:57:12.812Z,99620.91
2023-05-09T21:59:42.229Z,99585.56
2023-05-09T22:02:10.305Z,99622.44
2023-05-09T22:04:40.135Z,99617.34
2023-05-09T22:07:10.371Z,99614.56
2023-05-09T22:09:38.321Z,99603.44
2023-05-09T22:12:07.384Z,99609.97
2023-05-09T22:14:41.943Z,99610.09
2023-05-09T22:17:15.870Z,99606.56
2023-05-09T22:19:43.941Z,99610.94
2023-05-09T22:22:13.793Z,99606.84
2023-05-09T22:24:43.827Z,99580.34
2023-05-09T22:27:11.034Z,99602.69
2023-05-09T22:29:37.721Z,99577.34
2023-05-09T22:32:04.930Z,99583.88
2023-05-09T22:34:32.571Z,99609.88
2023-05-09T22:36:59.358Z,99601.50
2023-05-09T22:39:26.920Z,99601.50
2023-05-09T22:41:53.554Z,99604.88
2023-05-09T22:44:22.749Z,99605.84
2023-05-09T22:46:49.702Z,99601.50
2023-05-09T22:49:16.190Z,99599.81
2023-05-09T22:51:42.649Z,99602.72
2023-05-09T22:54:09.486Z,99598.34
2023-05-09T22:56:37.356Z,99589.84
2023-05-09T22:59:04.665Z,99596.66
2023-05-09T23:01:31.660Z,99586.38
2023-05-09T23:03:58.405Z,99588.19
2023-05-09T23:06:27.152Z,99574.34
2023-05-09T23:08:55.042Z,99590.59
2023-05-09T23:11:24.173Z,99582.84
2023-05-09T23:13:50.723Z,99578.38
2023-05-09T23:16:17.458Z,99594.84
2023-05-09T23:18:45.722Z,99593.25
2023-05-09T23:21:15.104Z,99582.59
2023-05-09T23:23:41.586Z,99581.84
2023-05-09T23:26:09.109Z,99582.84
2023-05-09T23:28:36.657Z,99582.13
2023-05-09T23:31:03.180Z,99581.50
2023-05-09T23:33:32.889Z,99570.38
2023-05-09T23:36:07.506Z,99577.59
2023-05-09T23:38:35.681Z,99583.56
2023-05-09T23:41:02.435Z,99592.72
2023-05-09T23:43:29.808Z,99606.41
2023-05-09T23:45:59.593Z,99605.31
2023-05-09T23:48:26.165Z,99601.94
2023-05-09T23:50:52.767Z,99607.63
2023-05-09T23:53:19.711Z,99614.00
2023-05-09T23:55:46.484Z,99610.50
2023-05-09T23:58:13.140Z,99611.91
